sensor_id;sensor_type;location;lat;lon;timestamp;P1;durP1;ratioP1;P2;durP2;ratioP2
66966;SDS011;53900;51.468;-2.586;2023-08-31T00:01:32;6.88;;;2.20;;
66966;SDS011;53900;51.468;-2.586;2023-08-31T00:04:00;5.70;;;2.28;;
66966;SDS011;53900;51.468;-2.586;2023-08-31T00:06:26;5.38;;;2.10;;
66966;SDS011;53900;51.468;-2.586;2023-08-31T00:08:51;4.70;;;2.25;;
66966;SDS011;53900;51.468;-2.586;2023-08-31T00:11:16;11.93;;;2.50;;
66966;SDS011;53900;51.468;-2.586;2023-08-31T00:13:41;3.85;;;2.25;;
66966;SDS011;53900;51.468;-2.586;2023-08-31T00:16:07;5.15;;;2.47;;
66966;SDS011;53900;51.468;-2.586;2023-08-31T00:18:34;4.68;;;2.45;;
66966;SDS011;53900;51.468;-2.586;2023-08-31T00:21:01;4.45;;;2.22;;
66966;SDS011;53900;51.468;-2.586;2023-08-31T00:23:26;5.65;;;2.47;;
66966;SDS011;53900;51.468;-2.586;2023-08-31T00:25:51;6.53;;;2.90;;
66966;SDS011;53900;51.468;-2.586;2023-08-31T00:28:18;7.32;;;2.40;;
66966;SDS011;53900;51.468;-2.586;2023-08-31T00:30:44;6.60;;;2.33;;
66966;SDS011;53900;51.468;-2.586;2023-08-31T00:33:14;8.55;;;2.63;;
66966;SDS011;53900;51.468;-2.586;2023-08-31T00:35:39;4.85;;;2.47;;
66966;SDS011;53900;51.468;-2.586;2023-08-31T00:38:08;6.50;;;2.70;;
66966;SDS011;53900;51.468;-2.586;2023-08-31T00:40:37;7.13;;;2.83;;
66966;SDS011;53900;51.468;-2.586;2023-08-31T00:43:06;8.57;;;2.60;;
66966;SDS011;53900;51.468;-2.586;2023-08-31T00:45:32;11.57;;;2.85;;
66966;SDS011;53900;51.468;-2.586;2023-08-31T00:47:57;8.27;;;2.70;;
66966;SDS011;53900;51.468;-2.586;2023-08-31T00:50:23;6.55;;;2.45;;
66966;SDS011;53900;51.468;-2.586;2023-08-31T00:52:48;9.98;;;2.67;;
66966;SDS011;53900;51.468;-2.586;2023-08-31T00:55:13;4.57;;;2.58;;
66966;SDS011;53900;51.468;-2.586;2023-08-31T00:57:38;7.03;;;2.28;;
66966;SDS011;53900;51.468;-2.586;2023-08-31T01:00:04;5.35;;;2.50;;
66966;SDS011;53900;51.468;-2.586;2023-08-31T01:05:10;5.18;;;2.60;;
66966;SDS011;53900;51.468;-2.586;2023-08-31T01:07:39;5.30;;;2.20;;
66966;SDS011;53900;51.468;-2.586;2023-08-31T01:10:18;6.13;;;2.30;;
66966;SDS011;53900;51.468;-2.586;2023-08-31T01:13:02;6.03;;;2.33;;
66966;SDS011;53900;51.468;-2.586;2023-08-31T01:15:28;7.68;;;2.55;;
66966;SDS011;53900;51.468;-2.586;2023-08-31T01:17:56;9.77;;;2.80;;
66966;SDS011;53900;51.468;-2.586;2023-08-31T01:20:31;8.10;;;2.90;;
66966;SDS011;53900;51.468;-2.586;2023-08-31T01:25:26;8.00;;;2.58;;
66966;SDS011;53900;51.468;-2.586;2023-08-31T01:27:52;7.78;;;2.47;;
66966;SDS011;53900;51.468;-2.586;2023-08-31T01:30:17;9.23;;;3.05;;
66966;SDS011;53900;51.468;-2.586;2023-08-31T01:32:43;5.03;;;2.22;;
66966;SDS011;53900;51.468;-2.586;2023-08-31T01:35:10;5.03;;;2.58;;
66966;SDS011;53900;51.468;-2.586;2023-08-31T01:37:47;4.82;;;2.40;;
66966;SDS011;53900;51.468;-2.586;2023-08-31T01:40:25;6.45;;;2.63;;
66966;SDS011;53900;51.468;-2.586;2023-08-31T01:42:52;5.30;;;2.30;;
66966;SDS011;53900;51.468;-2.586;2023-08-31T01:45:19;6.32;;;2.15;;
66966;SDS011;53900;51.468;-2.586;2023-08-31T01:47:45;7.38;;;2.50;;
66966;SDS011;53900;51.468;-2.586;2023-08-31T01:50:11;5.78;;;2.20;;
66966;SDS011;53900;51.468;-2.586;2023-08-31T01:52:36;4.32;;;2.28;;
66966;SDS011;53900;51.468;-2.586;2023-08-31T01:55:01;3.75;;;1.95;;
66966;SDS011;53900;51.468;-2.586;2023-08-31T01:57:26;10.45;;;2.50;;
66966;SDS011;53900;51.468;-2.586;2023-08-31T01:59:52;9.13;;;2.38;;
66966;SDS011;53900;51.468;-2.586;2023-08-31T02:02:17;5.95;;;2.30;;
66966;SDS011;53900;51.468;-2.586;2023-08-31T02:04:43;5.07;;;2.13;;
66966;SDS011;53900;51.468;-2.586;2023-08-31T02:07:08;6.72;;;2.08;;
66966;SDS011;53900;51.468;-2.586;2023-08-31T02:09:33;6.43;;;2.25;;
66966;SDS011;53900;51.468;-2.586;2023-08-31T02:11:59;10.85;;;2.10;;
66966;SDS011;53900;51.468;-2.586;2023-08-31T02:14:24;6.25;;;1.75;;
66966;SDS011;53900;51.468;-2.586;2023-08-31T02:16:49;5.80;;;1.80;;
66966;SDS011;53900;51.468;-2.586;2023-08-31T02:19:14;4.30;;;1.70;;
66966;SDS011;53900;51.468;-2.586;2023-08-31T02:21:40;6.00;;;2.05;;
66966;SDS011;53900;51.468;-2.586;2023-08-31T02:24:05;3.97;;;1.90;;
66966;SDS011;53900;51.468;-2.586;2023-08-31T02:26:30;5.80;;;2.25;;
66966;SDS011;53900;51.468;-2.586;2023-08-31T02:28:56;9.02;;;2.17;;
66966;SDS011;53900;51.468;-2.586;2023-08-31T02:31:21;5.25;;;2.00;;
66966;SDS011;53900;51.468;-2.586;2023-08-31T02:33:46;12.18;;;2.10;;
66966;SDS011;53900;51.468;-2.586;2023-08-31T02:36:12;8.43;;;2.20;;
66966;SDS011;53900;51.468;-2.586;2023-08-31T02:38:37;6.13;;;2.00;;
66966;SDS011;53900;51.468;-2.586;2023-08-31T02:41:02;5.97;;;2.28;;
66966;SDS011;53900;51.468;-2.586;2023-08-31T02:43:27;6.22;;;2.00;;
66966;SDS011;53900;51.468;-2.586;2023-08-31T02:46:03;5.75;;;1.90;;
66966;SDS011;53900;51.468;-2.586;2023-08-31T02:48:28;6.25;;;1.95;;
66966;SDS011;53900;51.468;-2.586;2023-08-31T02:50:56;10.32;;;2.38;;
66966;SDS011;53900;51.468;-2.586;2023-08-31T02:53:21;5.82;;;2.03;;
66966;SDS011;53900;51.468;-2.586;2023-08-31T02:55:46;6.07;;;2.10;;
66966;SDS011;53900;51.468;-2.586;2023-08-31T02:58:11;4.82;;;1.77;;
66966;SDS011;53900;51.468;-2.586;2023-08-31T03:00:37;5.40;;;2.50;;
66966;SDS011;53900;51.468;-2.586;2023-08-31T03:03:07;5.50;;;2.45;;
66966;SDS011;53900;51.468;-2.586;2023-08-31T03:05:33;5.57;;;2.00;;
66966;SDS011;53900;51.468;-2.586;2023-08-31T03:07:58;4.55;;;1.98;;
66966;SDS011;53900;51.468;-2.586;2023-08-31T03:10:23;4.65;;;2.00;;
66966;SDS011;53900;51.468;-2.586;2023-08-31T03:12:49;7.38;;;2.10;;
66966;SDS011;53900;51.468;-2.586;2023-08-31T03:15:14;5.50;;;1.98;;
66966;SDS011;53900;51.468;-2.586;2023-08-31T03:17:39;6.47;;;2.05;;
66966;SDS011;53900;51.468;-2.586;2023-08-31T03:20:05;5.45;;;2.20;;
66966;SDS011;53900;51.468;-2.586;2023-08-31T03:22:31;6.57;;;2.33;;
66966;SDS011;53900;51.468;-2.586;2023-08-31T03:24:56;3.15;;;1.80;;
66966;SDS011;53900;51.468;-2.586;2023-08-31T03:27:21;5.05;;;2.17;;
66966;SDS011;53900;51.468;-2.586;2023-08-31T03:29:47;5.53;;;2.40;;
66966;SDS011;53900;51.468;-2.586;2023-08-31T03:32:12;6.07;;;2.35;;
66966;SDS011;53900;51.468;-2.586;2023-08-31T03:34:37;8.85;;;2.22;;
66966;SDS011;53900;51.468;-2.586;2023-08-31T03:37:02;4.72;;;1.95;;
66966;SDS011;53900;51.468;-2.586;2023-08-31T03:39:27;5.00;;;1.60;;
66966;SDS011;53900;51.468;-2.586;2023-08-31T03:41:53;4.15;;;1.77;;
66966;SDS011;53900;51.468;-2.586;2023-08-31T03:44:19;6.40;;;2.13;;
66966;SDS011;53900;51.468;-2.586;2023-08-31T03:46:45;7.93;;;2.22;;
66966;SDS011;53900;51.468;-2.586;2023-08-31T03:49:10;6.05;;;1.92;;
66966;SDS011;53900;51.468;-2.586;2023-08-31T03:51:35;4.88;;;2.38;;
66966;SDS011;53900;51.468;-2.586;2023-08-31T03:54:00;9.15;;;2.03;;
66966;SDS011;53900;51.468;-2.586;2023-08-31T03:56:26;4.38;;;2.00;;
66966;SDS011;53900;51.468;-2.586;2023-08-31T03:58:51;6.30;;;2.55;;
66966;SDS011;53900;51.468;-2.586;2023-08-31T04:01:17;3.70;;;1.70;;
66966;SDS011;53900;51.468;-2.586;2023-08-31T04:03:42;4.97;;;1.92;;
66966;SDS011;53900;51.468;-2.586;2023-08-31T04:06:08;4.30;;;1.80;;
66966;SDS011;53900;51.468;-2.586;2023-08-31T04:08:33;6.90;;;2.20;;
66966;SDS011;53900;51.468;-2.586;2023-08-31T04:10:58;5.63;;;2.10;;
66966;SDS011;53900;51.468;-2.586;2023-08-31T04:13:24;7.05;;;2.22;;
66966;SDS011;53900;51.468;-2.586;2023-08-31T04:15:49;5.20;;;1.95;;
66966;SDS011;53900;51.468;-2.586;2023-08-31T04:18:14;6.85;;;1.80;;
66966;SDS011;53900;51.468;-2.586;2023-08-31T04:20:48;2.47;;;1.60;;
66966;SDS011;53900;51.468;-2.586;2023-08-31T04:23:14;5.75;;;1.88;;
66966;SDS011;53900;51.468;-2.586;2023-08-31T04:25:40;10.90;;;3.30;;
66966;SDS011;53900;51.468;-2.586;2023-08-31T04:28:05;3.42;;;1.77;;
66966;SDS011;53900;51.468;-2.586;2023-08-31T04:30:30;6.53;;;2.00;;
66966;SDS011;53900;51.468;-2.586;2023-08-31T04:32:56;4.82;;;2.10;;
66966;SDS011;53900;51.468;-2.586;2023-08-31T04:35:21;6.20;;;1.73;;
66966;SDS011;53900;51.468;-2.586;2023-08-31T04:37:46;8.82;;;2.50;;
66966;SDS011;53900;51.468;-2.586;2023-08-31T04:40:12;4.90;;;1.70;;
66966;SDS011;53900;51.468;-2.586;2023-08-31T04:42:37;4.53;;;1.90;;
66966;SDS011;53900;51.468;-2.586;2023-08-31T04:45:03;5.68;;;1.65;;
66966;SDS011;53900;51.468;-2.586;2023-08-31T04:47:28;4.57;;;1.75;;
66966;SDS011;53900;51.468;-2.586;2023-08-31T04:49:53;3.67;;;1.55;;
66966;SDS011;53900;51.468;-2.586;2023-08-31T04:52:19;8.45;;;1.60;;
66966;SDS011;53900;51.468;-2.586;2023-08-31T04:54:44;3.38;;;1.60;;
66966;SDS011;53900;51.468;-2.586;2023-08-31T04:57:09;2.92;;;1.60;;
66966;SDS011;53900;51.468;-2.586;2023-08-31T04:59:35;4.45;;;1.88;;
66966;SDS011;53900;51.468;-2.586;2023-08-31T05:02:00;6.22;;;1.80;;
66966;SDS011;53900;51.468;-2.586;2023-08-31T05:04:25;4.72;;;1.60;;
66966;SDS011;53900;51.468;-2.586;2023-08-31T05:06:51;3.67;;;1.80;;
66966;SDS011;53900;51.468;-2.586;2023-08-31T05:09:16;4.57;;;1.65;;
66966;SDS011;53900;51.468;-2.586;2023-08-31T05:11:41;5.13;;;2.00;;
66966;SDS011;53900;51.468;-2.586;2023-08-31T05:14:07;7.13;;;1.80;;
66966;SDS011;53900;51.468;-2.586;2023-08-31T05:16:32;3.80;;;1.63;;
66966;SDS011;53900;51.468;-2.586;2023-08-31T05:18:57;4.18;;;1.55;;
66966;SDS011;53900;51.468;-2.586;2023-08-31T05:21:22;3.72;;;1.60;;
66966;SDS011;53900;51.468;-2.586;2023-08-31T05:23:47;3.95;;;1.48;;
66966;SDS011;53900;51.468;-2.586;2023-08-31T05:26:13;5.22;;;1.52;;
66966;SDS011;53900;51.468;-2.586;2023-08-31T05:28:39;5.63;;;1.98;;
66966;SDS011;53900;51.468;-2.586;2023-08-31T05:31:04;3.47;;;1.63;;
66966;SDS011;53900;51.468;-2.586;2023-08-31T05:33:30;6.60;;;1.77;;
66966;SDS011;53900;51.468;-2.586;2023-08-31T05:35:59;3.67;;;1.55;;
66966;SDS011;53900;51.468;-2.586;2023-08-31T05:38:25;6.65;;;1.83;;
66966;SDS011;53900;51.468;-2.586;2023-08-31T05:40:50;7.28;;;1.80;;
66966;SDS011;53900;51.468;-2.586;2023-08-31T05:43:15;4.97;;;1.50;;
66966;SDS011;53900;51.468;-2.586;2023-08-31T05:45:41;5.95;;;1.58;;
66966;SDS011;53900;51.468;-2.586;2023-08-31T05:48:06;12.52;;;1.65;;
66966;SDS011;53900;51.468;-2.586;2023-08-31T05:50:32;4.15;;;1.70;;
66966;SDS011;53900;51.468;-2.586;2023-08-31T05:52:58;7.88;;;1.48;;
66966;SDS011;53900;51.468;-2.586;2023-08-31T05:55:23;3.72;;;1.65;;
66966;SDS011;53900;51.468;-2.586;2023-08-31T05:57:49;4.57;;;1.83;;
66966;SDS011;53900;51.468;-2.586;2023-08-31T06:00:14;2.45;;;1.48;;
66966;SDS011;53900;51.468;-2.586;2023-08-31T06:02:39;4.50;;;1.63;;
66966;SDS011;53900;51.468;-2.586;2023-08-31T06:05:04;4.10;;;1.50;;
66966;SDS011;53900;51.468;-2.586;2023-08-31T06:07:30;3.75;;;1.55;;
66966;SDS011;53900;51.468;-2.586;2023-08-31T06:09:56;5.47;;;1.60;;
66966;SDS011;53900;51.468;-2.586;2023-08-31T06:12:21;6.35;;;1.63;;
66966;SDS011;53900;51.468;-2.586;2023-08-31T06:14:47;5.10;;;1.40;;
66966;SDS011;53900;51.468;-2.586;2023-08-31T06:17:12;5.18;;;1.67;;
66966;SDS011;53900;51.468;-2.586;2023-08-31T06:19:38;4.03;;;1.52;;
66966;SDS011;53900;51.468;-2.586;2023-08-31T06:22:03;4.57;;;1.73;;
66966;SDS011;53900;51.468;-2.586;2023-08-31T06:24:29;8.27;;;1.50;;
66966;SDS011;53900;51.468;-2.586;2023-08-31T06:26:54;4.72;;;1.50;;
66966;SDS011;53900;51.468;-2.586;2023-08-31T06:29:21;3.28;;;1.80;;
66966;SDS011;53900;51.468;-2.586;2023-08-31T06:31:46;6.03;;;1.80;;
66966;SDS011;53900;51.468;-2.586;2023-08-31T06:34:11;4.78;;;1.65;;
66966;SDS011;53900;51.468;-2.586;2023-08-31T06:36:37;5.07;;;1.60;;
66966;SDS011;53900;51.468;-2.586;2023-08-31T06:39:02;4.53;;;1.63;;
66966;SDS011;53900;51.468;-2.586;2023-08-31T06:41:29;3.42;;;1.58;;
66966;SDS011;53900;51.468;-2.586;2023-08-31T06:43:55;2.90;;;1.40;;
66966;SDS011;53900;51.468;-2.586;2023-08-31T06:46:20;3.92;;;1.60;;
66966;SDS011;53900;51.468;-2.586;2023-08-31T06:48:48;5.20;;;1.75;;
66966;SDS011;53900;51.468;-2.586;2023-08-31T06:51:14;3.97;;;1.55;;
66966;SDS011;53900;51.468;-2.586;2023-08-31T06:53:39;5.72;;;1.70;;
66966;SDS011;53900;51.468;-2.586;2023-08-31T06:56:05;5.82;;;1.50;;
66966;SDS011;53900;51.468;-2.586;2023-08-31T06:58:30;5.95;;;2.00;;
66966;SDS011;53900;51.468;-2.586;2023-08-31T07:00:55;11.05;;;2.03;;
66966;SDS011;53900;51.468;-2.586;2023-08-31T07:03:20;5.85;;;2.08;;
66966;SDS011;53900;51.468;-2.586;2023-08-31T07:05:46;6.22;;;1.80;;
66966;SDS011;53900;51.468;-2.586;2023-08-31T07:08:11;8.10;;;1.90;;
66966;SDS011;53900;51.468;-2.586;2023-08-31T07:10:36;3.15;;;1.73;;
66966;SDS011;53900;51.468;-2.586;2023-08-31T07:13:02;5.18;;;1.90;;
66966;SDS011;53900;51.468;-2.586;2023-08-31T07:15:28;4.45;;;2.05;;
66966;SDS011;53900;51.468;-2.586;2023-08-31T07:17:53;5.50;;;1.55;;
66966;SDS011;53900;51.468;-2.586;2023-08-31T07:20:19;3.88;;;1.90;;
66966;SDS011;53900;51.468;-2.586;2023-08-31T07:22:44;4.75;;;1.55;;
66966;SDS011;53900;51.468;-2.586;2023-08-31T07:25:09;5.43;;;1.67;;
66966;SDS011;53900;51.468;-2.586;2023-08-31T07:27:35;3.90;;;2.05;;
66966;SDS011;53900;51.468;-2.586;2023-08-31T07:30:00;3.47;;;1.70;;
66966;SDS011;53900;51.468;-2.586;2023-08-31T07:32:25;8.07;;;1.70;;
66966;SDS011;53900;51.468;-2.586;2023-08-31T07:34:50;2.78;;;1.42;;
66966;SDS011;53900;51.468;-2.586;2023-08-31T07:37:16;3.38;;;1.52;;
66966;SDS011;53900;51.468;-2.586;2023-08-31T07:39:41;3.75;;;1.40;;
66966;SDS011;53900;51.468;-2.586;2023-08-31T07:42:06;7.13;;;1.42;;
66966;SDS011;53900;51.468;-2.586;2023-08-31T07:44:31;3.47;;;1.50;;
66966;SDS011;53900;51.468;-2.586;2023-08-31T07:46:56;3.47;;;1.52;;
66966;SDS011;53900;51.468;-2.586;2023-08-31T07:49:22;3.58;;;1.35;;
66966;SDS011;53900;51.468;-2.586;2023-08-31T07:51:47;2.25;;;1.20;;
66966;SDS011;53900;51.468;-2.586;2023-08-31T07:54:18;5.70;;;1.63;;
66966;SDS011;53900;51.468;-2.586;2023-08-31T07:56:44;2.53;;;1.30;;
66966;SDS011;53900;51.468;-2.586;2023-08-31T07:59:10;7.68;;;1.85;;
66966;SDS011;53900;51.468;-2.586;2023-08-31T08:01:35;6.10;;;1.70;;
66966;SDS011;53900;51.468;-2.586;2023-08-31T08:04:00;5.30;;;1.70;;
66966;SDS011;53900;51.468;-2.586;2023-08-31T08:06:25;2.58;;;1.40;;
66966;SDS011;53900;51.468;-2.586;2023-08-31T08:08:51;3.75;;;1.52;;
66966;SDS011;53900;51.468;-2.586;2023-08-31T08:11:16;1.92;;;1.30;;
66966;SDS011;53900;51.468;-2.586;2023-08-31T08:13:41;3.65;;;1.52;;
66966;SDS011;53900;51.468;-2.586;2023-08-31T08:16:06;3.50;;;1.60;;
66966;SDS011;53900;51.468;-2.586;2023-08-31T08:18:33;5.28;;;1.60;;
66966;SDS011;53900;51.468;-2.586;2023-08-31T08:20:58;6.53;;;1.63;;
66966;SDS011;53900;51.468;-2.586;2023-08-31T08:23:23;4.90;;;1.95;;
66966;SDS011;53900;51.468;-2.586;2023-08-31T08:25:48;12.13;;;1.92;;
66966;SDS011;53900;51.468;-2.586;2023-08-31T08:28:13;5.85;;;1.83;;
66966;SDS011;53900;51.468;-2.586;2023-08-31T08:30:39;8.10;;;2.00;;
66966;SDS011;53900;51.468;-2.586;2023-08-31T08:33:04;5.22;;;1.80;;
66966;SDS011;53900;51.468;-2.586;2023-08-31T08:35:29;7.50;;;1.73;;
66966;SDS011;53900;51.468;-2.586;2023-08-31T08:37:54;6.15;;;1.95;;
66966;SDS011;53900;51.468;-2.586;2023-08-31T08:40:20;12.20;;;2.10;;
66966;SDS011;53900;51.468;-2.586;2023-08-31T08:42:46;6.20;;;1.80;;
66966;SDS011;53900;51.468;-2.586;2023-08-31T08:45:15;6.20;;;1.50;;
66966;SDS011;53900;51.468;-2.586;2023-08-31T08:47:40;4.70;;;1.50;;
66966;SDS011;53900;51.468;-2.586;2023-08-31T08:50:05;8.20;;;1.77;;
66966;SDS011;53900;51.468;-2.586;2023-08-31T08:52:31;5.18;;;1.60;;
66966;SDS011;53900;51.468;-2.586;2023-08-31T08:54:56;5.60;;;1.80;;
66966;SDS011;53900;51.468;-2.586;2023-08-31T08:57:22;6.88;;;1.40;;
66966;SDS011;53900;51.468;-2.586;2023-08-31T08:59:47;5.88;;;1.40;;
66966;SDS011;53900;51.468;-2.586;2023-08-31T09:02:13;4.50;;;1.48;;
66966;SDS011;53900;51.468;-2.586;2023-08-31T09:04:38;6.20;;;1.70;;
66966;SDS011;53900;51.468;-2.586;2023-08-31T09:07:03;6.25;;;1.40;;
66966;SDS011;53900;51.468;-2.586;2023-08-31T09:09:29;5.63;;;1.65;;
66966;SDS011;53900;51.468;-2.586;2023-08-31T09:11:54;3.33;;;1.20;;
66966;SDS011;53900;51.468;-2.586;2023-08-31T09:14:21;7.72;;;1.50;;
66966;SDS011;53900;51.468;-2.586;2023-08-31T09:16:47;4.28;;;1.52;;
66966;SDS011;53900;51.468;-2.586;2023-08-31T09:19:22;2.75;;;1.20;;
66966;SDS011;53900;51.468;-2.586;2023-08-31T09:21:51;2.65;;;1.52;;
66966;SDS011;53900;51.468;-2.586;2023-08-31T09:24:17;4.72;;;1.35;;
66966;SDS011;53900;51.468;-2.586;2023-08-31T09:26:45;8.05;;;1.33;;
66966;SDS011;53900;51.468;-2.586;2023-08-31T09:29:13;3.53;;;1.55;;
66966;SDS011;53900;51.468;-2.586;2023-08-31T09:31:42;3.47;;;1.30;;
66966;SDS011;53900;51.468;-2.586;2023-08-31T09:34:08;4.05;;;1.35;;
66966;SDS011;53900;51.468;-2.586;2023-08-31T09:36:33;3.35;;;1.27;;
66966;SDS011;53900;51.468;-2.586;2023-08-31T09:38:58;3.58;;;1.50;;
66966;SDS011;53900;51.468;-2.586;2023-08-31T09:41:24;4.50;;;1.33;;
66966;SDS011;53900;51.468;-2.586;2023-08-31T09:43:49;5.13;;;1.73;;
66966;SDS011;53900;51.468;-2.586;2023-08-31T09:46:14;5.82;;;1.25;;
66966;SDS011;53900;51.468;-2.586;2023-08-31T09:48:40;4.50;;;1.50;;
66966;SDS011;53900;51.468;-2.586;2023-08-31T09:51:07;3.58;;;1.17;;
66966;SDS011;53900;51.468;-2.586;2023-08-31T09:53:35;3.30;;;1.20;;
66966;SDS011;53900;51.468;-2.586;2023-08-31T09:56:01;5.15;;;1.20;;
66966;SDS011;53900;51.468;-2.586;2023-08-31T09:58:27;3.20;;;1.55;;
66966;SDS011;53900;51.468;-2.586;2023-08-31T10:00:53;6.18;;;1.52;;
66966;SDS011;53900;51.468;-2.586;2023-08-31T10:03:20;4.20;;;1.27;;
66966;SDS011;53900;51.468;-2.586;2023-08-31T10:05:46;5.10;;;1.38;;
66966;SDS011;53900;51.468;-2.586;2023-08-31T10:08:12;4.18;;;1.20;;
66966;SDS011;53900;51.468;-2.586;2023-08-31T10:10:37;5.53;;;1.00;;
66966;SDS011;53900;51.468;-2.586;2023-08-31T10:13:04;3.35;;;1.38;;
66966;SDS011;53900;51.468;-2.586;2023-08-31T10:15:33;3.72;;;1.80;;
66966;SDS011;53900;51.468;-2.586;2023-08-31T10:18:02;4.07;;;1.20;;
66966;SDS011;53900;51.468;-2.586;2023-08-31T10:20:28;9.07;;;1.50;;
66966;SDS011;53900;51.468;-2.586;2023-08-31T10:22:56;3.67;;;1.10;;
66966;SDS011;53900;51.468;-2.586;2023-08-31T10:25:22;2.92;;;1.10;;
66966;SDS011;53900;51.468;-2.586;2023-08-31T10:27:48;5.85;;;1.35;;
66966;SDS011;53900;51.468;-2.586;2023-08-31T10:35:50;3.25;;;1.35;;
66966;SDS011;53900;51.468;-2.586;2023-08-31T10:38:16;3.95;;;1.60;;
66966;SDS011;53900;51.468;-2.586;2023-08-31T10:40:41;2.08;;;1.00;;
66966;SDS011;53900;51.468;-2.586;2023-08-31T10:43:15;3.63;;;0.95;;
66966;SDS011;53900;51.468;-2.586;2023-08-31T10:45:44;3.92;;;1.42;;
66966;SDS011;53900;51.468;-2.586;2023-08-31T10:48:10;5.15;;;1.38;;
66966;SDS011;53900;51.468;-2.586;2023-08-31T10:50:40;4.43;;;1.38;;
66966;SDS011;53900;51.468;-2.586;2023-08-31T10:53:09;3.70;;;1.40;;
66966;SDS011;53900;51.468;-2.586;2023-08-31T10:55:39;3.42;;;1.25;;
66966;SDS011;53900;51.468;-2.586;2023-08-31T10:58:14;3.03;;;1.27;;
66966;SDS011;53900;51.468;-2.586;2023-08-31T11:00:46;4.30;;;1.30;;
66966;SDS011;53900;51.468;-2.586;2023-08-31T11:03:12;4.72;;;1.42;;
66966;SDS011;53900;51.468;-2.586;2023-08-31T11:05:37;3.47;;;1.58;;
66966;SDS011;53900;51.468;-2.586;2023-08-31T11:08:15;3.10;;;1.10;;
66966;SDS011;53900;51.468;-2.586;2023-08-31T11:10:40;2.35;;;1.35;;
66966;SDS011;53900;51.468;-2.586;2023-08-31T11:13:10;5.45;;;1.40;;
66966;SDS011;53900;51.468;-2.586;2023-08-31T11:15:40;4.15;;;1.50;;
66966;SDS011;53900;51.468;-2.586;2023-08-31T11:20:35;1.83;;;1.20;;
66966;SDS011;53900;51.468;-2.586;2023-08-31T11:23:01;2.78;;;1.20;;
66966;SDS011;53900;51.468;-2.586;2023-08-31T11:25:30;2.20;;;1.17;;
66966;SDS011;53900;51.468;-2.586;2023-08-31T11:27:56;3.63;;;1.30;;
66966;SDS011;53900;51.468;-2.586;2023-08-31T11:30:21;1.73;;;1.15;;
66966;SDS011;53900;51.468;-2.586;2023-08-31T11:32:47;2.65;;;1.17;;
66966;SDS011;53900;51.468;-2.586;2023-08-31T11:35:13;2.65;;;1.23;;
66966;SDS011;53900;51.468;-2.586;2023-08-31T11:37:38;3.83;;;1.30;;
66966;SDS011;53900;51.468;-2.586;2023-08-31T11:40:04;2.80;;;1.55;;
66966;SDS011;53900;51.468;-2.586;2023-08-31T11:42:30;2.22;;;1.17;;
66966;SDS011;53900;51.468;-2.586;2023-08-31T11:44:55;1.73;;;1.10;;
66966;SDS011;53900;51.468;-2.586;2023-08-31T11:47:21;1.13;;;1.00;;
66966;SDS011;53900;51.468;-2.586;2023-08-31T11:49:46;1.33;;;1.10;;
66966;SDS011;53900;51.468;-2.586;2023-08-31T11:52:13;3.50;;;1.27;;
66966;SDS011;53900;51.468;-2.586;2023-08-31T11:54:39;3.05;;;1.20;;
66966;SDS011;53900;51.468;-2.586;2023-08-31T11:57:08;2.30;;;1.17;;
66966;SDS011;53900;51.468;-2.586;2023-08-31T11:59:34;1.58;;;0.95;;
66966;SDS011;53900;51.468;-2.586;2023-08-31T12:01:59;1.65;;;0.90;;
66966;SDS011;53900;51.468;-2.586;2023-08-31T12:04:25;1.75;;;0.95;;
66966;SDS011;53900;51.468;-2.586;2023-08-31T12:06:53;3.72;;;1.17;;
66966;SDS011;53900;51.468;-2.586;2023-08-31T12:09:25;2.00;;;0.90;;
66966;SDS011;53900;51.468;-2.586;2023-08-31T12:11:52;2.47;;;1.13;;
66966;SDS011;53900;51.468;-2.586;2023-08-31T12:14:21;4.72;;;1.20;;
66966;SDS011;53900;51.468;-2.586;2023-08-31T12:16:47;2.67;;;1.20;;
66966;SDS011;53900;51.468;-2.586;2023-08-31T12:19:13;1.30;;;1.00;;
66966;SDS011;53900;51.468;-2.586;2023-08-31T12:21:38;1.40;;;1.00;;
66966;SDS011;53900;51.468;-2.586;2023-08-31T12:24:05;0.70;;;0.70;;
66966;SDS011;53900;51.468;-2.586;2023-08-31T12:26:31;2.60;;;0.80;;
66966;SDS011;53900;51.468;-2.586;2023-08-31T12:28:56;2.53;;;0.93;;
66966;SDS011;53900;51.468;-2.586;2023-08-31T12:31:22;1.98;;;0.80;;
66966;SDS011;53900;51.468;-2.586;2023-08-31T12:33:47;1.15;;;0.85;;
66966;SDS011;53900;51.468;-2.586;2023-08-31T12:36:13;2.28;;;1.00;;
66966;SDS011;53900;51.468;-2.586;2023-08-31T12:38:38;1.00;;;0.80;;
66966;SDS011;53900;51.468;-2.586;2023-08-31T12:41:03;1.40;;;0.90;;
66966;SDS011;53900;51.468;-2.586;2023-08-31T12:43:29;2.00;;;0.85;;
66966;SDS011;53900;51.468;-2.586;2023-08-31T12:45:54;1.50;;;1.13;;
66966;SDS011;53900;51.468;-2.586;2023-08-31T12:48:20;2.53;;;1.10;;
66966;SDS011;53900;51.468;-2.586;2023-08-31T12:50:45;2.33;;;1.00;;
66966;SDS011;53900;51.468;-2.586;2023-08-31T12:53:10;1.90;;;1.00;;
66966;SDS011;53900;51.468;-2.586;2023-08-31T12:55:35;1.83;;;1.17;;
66966;SDS011;53900;51.468;-2.586;2023-08-31T12:58:00;2.97;;;1.00;;
66966;SDS011;53900;51.468;-2.586;2023-08-31T13:00:26;2.38;;;1.00;;
66966;SDS011;53900;51.468;-2.586;2023-08-31T13:02:52;1.85;;;0.88;;
66966;SDS011;53900;51.468;-2.586;2023-08-31T13:05:17;1.50;;;1.15;;
66966;SDS011;53900;51.468;-2.586;2023-08-31T13:07:42;2.38;;;1.13;;
66966;SDS011;53900;51.468;-2.586;2023-08-31T13:10:07;1.60;;;1.02;;
66966;SDS011;53900;51.468;-2.586;2023-08-31T13:12:33;1.77;;;1.17;;
66966;SDS011;53900;51.468;-2.586;2023-08-31T13:14:59;2.65;;;1.25;;
66966;SDS011;53900;51.468;-2.586;2023-08-31T13:17:24;4.18;;;1.42;;
66966;SDS011;53900;51.468;-2.586;2023-08-31T13:19:56;4.82;;;1.20;;
66966;SDS011;53900;51.468;-2.586;2023-08-31T13:24:47;1.97;;;1.23;;
66966;SDS011;53900;51.468;-2.586;2023-08-31T13:27:12;2.60;;;1.40;;
66966;SDS011;53900;51.468;-2.586;2023-08-31T13:29:40;3.05;;;1.45;;
66966;SDS011;53900;51.468;-2.586;2023-08-31T13:32:06;4.90;;;1.23;;
66966;SDS011;53900;51.468;-2.586;2023-08-31T13:37:09;3.63;;;1.33;;
66966;SDS011;53900;51.468;-2.586;2023-08-31T13:39:34;5.93;;;1.67;;
66966;SDS011;53900;51.468;-2.586;2023-08-31T13:42:00;3.88;;;1.23;;
66966;SDS011;53900;51.468;-2.586;2023-08-31T13:44:28;2.35;;;1.20;;
66966;SDS011;53900;51.468;-2.586;2023-08-31T13:46:53;2.90;;;1.30;;
66966;SDS011;53900;51.468;-2.586;2023-08-31T13:49:19;4.13;;;1.60;;
66966;SDS011;53900;51.468;-2.586;2023-08-31T13:51:44;2.45;;;1.60;;
66966;SDS011;53900;51.468;-2.586;2023-08-31T13:54:10;3.60;;;1.67;;
66966;SDS011;53900;51.468;-2.586;2023-08-31T13:56:35;3.80;;;1.38;;
66966;SDS011;53900;51.468;-2.586;2023-08-31T13:59:01;4.50;;;2.05;;
66966;SDS011;53900;51.468;-2.586;2023-08-31T14:01:26;1.23;;;1.13;;
66966;SDS011;53900;51.468;-2.586;2023-08-31T14:03:52;1.65;;;1.23;;
66966;SDS011;53900;51.468;-2.586;2023-08-31T14:06:17;2.55;;;1.20;;
66966;SDS011;53900;51.468;-2.586;2023-08-31T14:08:42;1.92;;;0.93;;
66966;SDS011;53900;51.468;-2.586;2023-08-31T14:11:08;3.15;;;1.23;;
66966;SDS011;53900;51.468;-2.586;2023-08-31T14:13:33;1.88;;;1.20;;
66966;SDS011;53900;51.468;-2.586;2023-08-31T14:15:59;3.13;;;1.60;;
66966;SDS011;53900;51.468;-2.586;2023-08-31T14:18:26;1.40;;;1.30;;
66966;SDS011;53900;51.468;-2.586;2023-08-31T14:20:53;2.55;;;1.30;;
66966;SDS011;53900;51.468;-2.586;2023-08-31T14:23:18;2.08;;;1.27;;
66966;SDS011;53900;51.468;-2.586;2023-08-31T14:25:44;4.60;;;1.20;;
66966;SDS011;53900;51.468;-2.586;2023-08-31T14:28:09;6.28;;;1.73;;
66966;SDS011;53900;51.468;-2.586;2023-08-31T14:30:37;1.13;;;1.02;;
66966;SDS011;53900;51.468;-2.586;2023-08-31T14:33:02;2.38;;;1.05;;
66966;SDS011;53900;51.468;-2.586;2023-08-31T14:35:27;2.95;;;1.08;;
66966;SDS011;53900;51.468;-2.586;2023-08-31T14:37:53;2.83;;;1.15;;
66966;SDS011;53900;51.468;-2.586;2023-08-31T14:40:18;1.10;;;1.00;;
66966;SDS011;53900;51.468;-2.586;2023-08-31T14:42:43;1.92;;;1.20;;
66966;SDS011;53900;51.468;-2.586;2023-08-31T14:45:09;2.67;;;1.20;;